createdAt,value
2023-04-16T02:58:51.469Z,93703.00
2023-04-16T03:02:55.501Z,93701.00
2023-04-16T03:07:50.871Z,93701.00
2023-04-16T03:11:54.620Z,93708.00
2023-04-16T03:16:00.059Z,93693.00
2023-04-16T03:20:05.163Z,93712.00
2023-04-16T03:24:34.847Z,93708.00
2023-04-16T03:28:38.529Z,93689.00
2023-04-16T03:32:43.870Z,93699.00
2023-04-16T03:37:19.945Z,93718.00
2023-04-16T03:41:23.549Z,93710.00
2023-04-16T03:45:32.644Z,93720.00
2023-04-16T03:49:38.574Z,93716.00
2023-04-16T03:54:00.557Z,93729.00
2023-04-16T03:58:12.699Z,93726.00
2023-04-16T04:02:19.510Z,93732.00
2023-04-16T04:06:24.776Z,93703.00
2023-04-16T04:10:28.436Z,93714.00
2023-04-16T04:14:32.076Z,93745.00
2023-04-16T04:19:11.784Z,93748.00
2023-04-16T04:23:16.782Z,93757.00
2023-04-16T04:27:22.060Z,93744.00
2023-04-16T04:31:31.519Z,93753.00
2023-04-16T04:35:35.544Z,93757.00
2023-04-16T04:40:30.928Z,93788.00
2023-04-16T04:44:37.312Z,93788.00
2023-04-16T04:49:36.449Z,93790.00
2023-04-16T04:53:42.430Z,93800.00
2023-04-16T04:57:46.790Z,93804.00
2023-04-16T05:01:54.946Z,93801.00
2023-04-16T05:05:58.473Z,93812.00
2023-04-16T05:10:03.479Z,93799.00
2023-04-16T05:14:07.191Z,93813.00
2023-04-16T05:18:13.371Z,93821.00
2023-04-16T05:22:19.189Z,93830.00
2023-04-16T05:26:24.992Z,93824.00
2023-04-16T05:30:28.436Z,93835.00
2023-04-16T05:34:45.849Z,93840.00
2023-04-16T05:38:49.682Z,93834.00
2023-04-16T05:43:12.255Z,93839.00
2023-04-16T05:47:15.729Z,93829.00
2023-04-16T05:51:23.258Z,93820.00
2023-04-16T05:55:28.216Z,93849.00
2023-04-16T05:59:31.871Z,93822.00
2023-04-16T06:03:36.854Z,93853.00
2023-04-16T06:07:41.964Z,93869.00
2023-04-16T06:11:50.784Z,93858.00
2023-04-16T06:15:54.561Z,93871.00
2023-04-16T06:19:59.416Z,93884.00
2023-04-16T06:24:04.661Z,93884.00
2023-04-16T06:28:39.892Z,93887.00
2023-04-16T06:32:44.655Z,93892.00
2023-04-16T06:37:14.770Z,93881.00
2023-04-16T06:41:19.885Z,93881.00
2023-04-16T06:45:48.847Z,93875.00
2023-04-16T06:49:52.434Z,93865.00
2023-04-16T06:54:20.906Z,93891.00
2023-04-16T06:58:51.605Z,93899.00
2023-04-16T07:02:58.574Z,93898.00
2023-04-16T07:07:22.769Z,93891.00
2023-04-16T07:11:26.708Z,93881.00
2023-04-16T07:15:58.533Z,93910.00
2023-04-16T07:20:21.945Z,93897.00
2023-04-16T07:24:38.504Z,93898.00
2023-04-16T07:33:46.549Z,93928.00
2023-04-16T07:38:12.553Z,93919.00
2023-04-16T07:42:37.510Z,93923.00
2023-04-16T07:46:46.946Z,93904.00
2023-04-16T07:50:55.352Z,93925.00
2023-04-16T07:55:02.563Z,93925.00
2023-04-16T07:59:53.732Z,93909.00
2023-04-16T08:03:59.965Z,93919.00
2023-04-16T08:08:09.276Z,93934.00
2023-04-16T08:12:13.784Z,93944.00
2023-04-16T08:16:19.501Z,93937.00
2023-04-16T08:20:24.527Z,93945.00
2023-04-16T08:24:31.609Z,93932.00
2023-04-16T08:28:36.219Z,93955.00
2023-04-16T08:32:42.813Z,93962.00
2023-04-16T08:36:47.143Z,93969.00
2023-04-16T08:40:52.741Z,93982.00
2023-04-16T08:45:05.905Z,93983.00
2023-04-16T08:49:19.754Z,93983.00
2023-04-16T08:53:31.539Z,93989.00
2023-04-16T08:57:47.200Z,93985.00
2023-04-16T09:01:52.715Z,93986.00
2023-04-16T09:06:04.785Z,93982.00
2023-04-16T09:10:12.419Z,93984.00
2023-04-16T09:14:17.600Z,94000.00
2023-04-16T09:18:22.209Z,94004.00
2023-04-16T09:22:27.298Z,94018.00
2023-04-16T09:26:31.741Z,93994.00
2023-04-16T09:30:38.986Z,94000.00
2023-04-16T09:35:00.196Z,94024.00
2023-04-16T09:39:06.886Z,94006.00
2023-04-16T09:43:14.066Z,94010.00
2023-04-16T09:47:27.843Z,94007.00
2023-04-16T09:51:42.732Z,94033.00
2023-04-16T09:55:46.998Z,94025.00
2023-04-16T09:59:57.420Z,94027.00
2023-04-16T10:04:02.717Z,94020.00
2023-04-16T10:08:13.909Z,94041.00
2023-04-16T10:12:17.980Z,94036.00
2023-04-16T10:16:23.868Z,94027.00
2023-04-16T10:20:31.016Z,94041.00
2023-04-16T10:24:36.491Z,94040.00
2023-04-16T10:28:42.511Z,94036.00
2023-04-16T10:32:47.175Z,94032.00
2023-04-16T10:36:54.093Z,94028.00
2023-04-16T10:41:02.208Z,94038.00
2023-04-16T10:45:07.136Z,94031.00
2023-04-16T10:49:19.426Z,94032.00
2023-04-16T10:53:27.064Z,94051.00
2023-04-16T10:57:31.843Z,94032.00
2023-04-16T11:01:37.517Z,94044.00
2023-04-16T11:05:48.043Z,94047.00
2023-04-16T11:09:58.276Z,94046.00
2023-04-16T11:14:07.181Z,94046.00
2023-04-16T11:18:12.081Z,94044.00
2023-04-16T11:22:18.797Z,94060.00
2023-04-16T11:26:25.535Z,94063.00
2023-04-16T11:30:36.131Z,94073.00
2023-04-16T11:34:50.672Z,94071.00
2023-04-16T11:39:03.850Z,94061.00
2023-04-16T11:43:16.582Z,94054.00
2023-04-16T11:47:21.416Z,94069.00
2023-04-16T11:51:28.788Z,94061.00
2023-04-16T11:55:33.094Z,94065.00
2023-04-16T12:00:02.473Z,94059.00
2023-04-16T12:04:18.757Z,94064.00
2023-04-16T12:08:43.170Z,94071.00
2023-04-16T12:12:49.770Z,94055.00
2023-04-16T12:16:58.581Z,94058.00
2023-04-16T12:21:09.708Z,94068.00
2023-04-16T12:25:16.529Z,94062.00
2023-04-16T12:29:23.056Z,94069.00
2023-04-16T12:33:31.650Z,94073.00
2023-04-16T12:37:38.251Z,94053.00
2023-04-16T12:41:46.057Z,94067.00
2023-04-16T12:45:54.816Z,94053.00
2023-04-16T12:50:40.234Z,94054.00
2023-04-16T13:00:10.909Z,94070.00
2023-04-16T13:04:25.161Z,94069.00
2023-04-16T13:08:50.192Z,94072.00
2023-04-16T13:13:06.743Z,94052.00
2023-04-16T13:17:21.407Z,94059.00
2023-04-16T13:25:54.432Z,94054.00
2023-04-16T13:30:27.301Z,94046.00
2023-04-16T13:39:23.646Z,94083.00
2023-04-16T13:43:49.182Z,94081.00
2023-04-16T13:47:56.507Z,94085.00
2023-04-16T13:52:03.515Z,94062.00
2023-04-16T13:56:08.560Z,94070.00
2023-04-16T14:00:24.170Z,94077.00
2023-04-16T14:05:09.184Z,94088.00
2023-04-16T14:09:26.218Z,94068.00
2023-04-16T14:13:59.578Z,94090.00
2023-04-16T14:18:05.523Z,94072.00
2023-04-16T14:22:09.637Z,94077.00
2023-04-16T14:32:16.845Z,94078.00
2023-04-16T14:36:24.231Z,94078.00
2023-04-16T14:40:28.145Z,94089.00
2023-04-16T14:44:31.737Z,94082.00
2023-04-16T14:48:36.713Z,94078.00
2023-04-16T14:52:45.017Z,94082.00
2023-04-16T14:57:23.662Z,94099.00
2023-04-16T15:01:34.029Z,94073.00
2023-04-16T15:05:39.491Z,94080.00
2023-04-16T15:10:00.202Z,94082.00
2023-04-16T15:14:03.794Z,94081.00
2023-04-16T15:18:08.726Z,94100.00
2023-04-16T15:22:14.931Z,94108.00
2023-04-16T15:26:18.467Z,94109.00
2023-04-16T15:30:23.168Z,94107.00
2023-04-16T15:34:28.422Z,94096.00
2023-04-16T15:38:49.288Z,94123.00
2023-04-16T15:42:53.163Z,94116.00
2023-04-16T15:58:53.761Z,94113.00
2023-04-16T16:02:58.015Z,94115.00
2023-04-16T16:07:06.184Z,94129.00
2023-04-16T16:11:12.890Z,94126.00
2023-04-16T16:15:22.291Z,94137.00
2023-04-16T16:19:29.890Z,94123.00
2023-04-16T16:23:36.565Z,94126.00
2023-04-16T16:27:42.433Z,94124.00
2023-04-16T16:31:55.782Z,94136.00
2023-04-16T16:36:00.612Z,94122.00
2023-04-16T16:40:10.614Z,94102.00
2023-04-16T16:44:27.895Z,94117.00
2023-04-16T16:48:35.052Z,94133.00
2023-04-16T16:52:42.798Z,94130.00
2023-04-16T16:56:51.052Z,94130.00
2023-04-16T17:00:59.559Z,94127.00
2023-04-16T17:05:15.148Z,94132.00
2023-04-16T17:09:21.570Z,94133.00
2023-04-16T17:13:26.726Z,94120.00
2023-04-16T17:17:32.971Z,94125.00
2023-04-16T17:21:45.299Z,94135.00
2023-04-16T17:26:03.297Z,94150.00
2023-04-16T17:30:11.092Z,94136.00
2023-04-16T17:34:21.264Z,94148.00
2023-04-16T17:38:44.974Z,94158.00
2023-04-16T17:42:51.610Z,94148.00
2023-04-16T17:46:58.249Z,94159.00
2023-04-16T17:51:03.824Z,94150.00
2023-04-16T17:55:30.786Z,94158.00
2023-04-16T17:59:37.891Z,94163.00
2023-04-16T18:03:46.608Z,94181.00
2023-04-16T18:08:09.671Z,94173.00
2023-04-16T18:12:19.427Z,94154.00
2023-04-16T18:16:27.606Z,94177.00
2023-04-16T18:20:35.845Z,94195.00
2023-04-16T18:24:54.509Z,94192.00
2023-04-16T18:29:07.588Z,94191.00
2023-04-16T18:33:44.278Z,94206.00
2023-04-16T18:38:03.192Z,94194.00
2023-04-16T18:42:44.859Z,94200.00
2023-04-16T18:46:55.823Z,94189.00
2023-04-16T18:51:18.210Z,94208.00
2023-04-16T18:55:30.762Z,94211.00
2023-04-16T18:59:37.483Z,94211.00
2023-04-16T19:03:49.557Z,94216.00
2023-04-16T19:07:56.024Z,94223.00
2023-04-16T19:12:08.934Z,94222.00
2023-04-16T19:16:14.940Z,94205.00
2023-04-16T19:20:21.636Z,94214.00
2023-04-16T19:24:33.714Z,94210.00
2023-04-16T19:28:45.238Z,94208.00
2023-04-16T19:32:55.052Z,94204.00
2023-04-16T19:37:08.574Z,94226.00
2023-04-16T19:41:14.818Z,94217.00
2023-04-16T19:45:27.005Z,94207.00
2023-04-16T19:49:46.943Z,94230.00
2023-04-16T19:54:02.267Z,94210.00
2023-04-16T19:58:09.763Z,94218.00
2023-04-16T20:02:23.512Z,94216.00
2023-04-16T20:06:31.664Z,94236.00
2023-04-16T20:10:40.304Z,94210.00
2023-04-16T20:19:08.735Z,94230.00
2023-04-16T20:23:17.222Z,94226.00
2023-04-16T20:27:29.402Z,94218.00
2023-04-16T20:31:35.566Z,94222.00
2023-04-16T20:35:40.255Z,94211.00
2023-04-16T20:39:46.797Z,94222.00
2023-04-16T20:43:54.460Z,94216.00
2023-04-16T20:48:00.209Z,94224.00
2023-04-16T20:52:05.989Z,94214.00
2023-04-16T20:56:16.347Z,94213.00
2023-04-16T21:00:25.282Z,94209.00
2023-04-16T21:04:30.594Z,94228.00
2023-04-16T21:08:38.776Z,94213.00
2023-04-16T21:12:45.328Z,94232.00
2023-04-16T21:16:53.373Z,94205.00
2023-04-16T21:21:01.790Z,94233.00
2023-04-16T21:25:05.830Z,94213.00
2023-04-16T21:29:22.308Z,94225.00
2023-04-16T21:33:32.484Z,94207.00
2023-04-16T21:37:37.320Z,94198.00
2023-04-16T21:41:41.560Z,94220.00
2023-04-16T21:45:47.354Z,94235.00
2023-04-16T21:49:59.135Z,94214.00
2023-04-16T21:54:03.734Z,94225.00
2023-04-16T22:02:49.149Z,94229.00
2023-04-16T22:07:06.164Z,94215.00
2023-04-16T22:11:11.476Z,94217.00
2023-04-16T22:15:24.367Z,94215.00
2023-04-16T22:19:33.194Z,94215.00
2023-04-16T22:23:43.348Z,94214.00
2023-04-16T22:27:51.132Z,94196.00
2023-04-16T22:32:03.447Z,94217.00
2023-04-16T22:36:10.106Z,94195.00
2023-04-16T22:40:19.654Z,94213.00
2023-04-16T22:44:24.709Z,94207.00
2023-04-16T22:48:45.151Z,94215.00
2023-04-16T22:52:49.291Z,94195.00
2023-04-16T22:56:56.383Z,94214.00
2023-04-16T23:01:02.563Z,94203.00
2023-04-16T23:05:09.741Z,94207.00
2023-04-16T23:09:18.848Z,94191.00
2023-04-16T23:13:27.615Z,94207.00
2023-04-16T23:17:33.609Z,94209.00
2023-04-16T23:21:41.448Z,94187.00
2023-04-16T23:25:50.483Z,94212.00
2023-04-16T23:30:00.339Z,94203.00
2023-04-16T23:34:06.988Z,94188.00
2023-04-16T23:38:13.365Z,94168.00
2023-04-16T23:42:18.458Z,94178.00
2023-04-16T23:46:25.931Z,94189.00
2023-04-16T23:50:33.517Z,94177.00
2023-04-16T23:54:37.184Z,94179.00
2023-04-16T23:58:45.116Z,94185.00
